Time;durP1;ratioP1;P1;durP2;ratioP2;P2;SDS_P1;SDS_P2;PMS_P1;PMS_P2;Temp;Humidity;BMP_temperature;BMP_pressure;BME280_temperature;BME280_humidity;BME280_pressure;Samples;Min_cycle;Max_cycle;Signal;HPM_P1;HPM_P2
2022/07/19 00:01:11;;;;;;;10.30;4.10;;;;;;;19.97;77.36;101646.31;5226895;28;20045;-71
2022/07/19 00:03:42;;;;;;;6.28;3.92;;;;;;;19.96;76.75;101641.88;5224957;28;20156;-71
2022/07/19 00:06:13;;;;;;;9.32;3.92;;;;;;;19.90;78.09;101634.41;5223799;28;20025;-71
2022/07/19 00:08:45;;;;;;;8.63;4.57;;;;;;;19.88;78.92;101629.16;5220858;28;20049;-72
2022/07/19 00:11:17;;;;;;;7.68;4.10;;;;;;;19.82;78.79;101631.66;5221938;28;20022;-71
2022/07/19 00:13:48;;;;;;;10.13;4.10;;;;;;;19.77;79.29;101629.41;5224554;28;20030;-70
2022/07/19 00:16:19;;;;;;;9.23;4.40;;;;;;;19.78;79.21;101625.69;5216716;28;20152;-70
2022/07/19 00:18:51;;;;;;;7.85;4.25;;;;;;;19.75;79.50;101626.88;5220991;28;20057;-70
2022/07/19 00:21:22;;;;;;;10.10;4.10;;;;;;;19.68;78.70;101625.78;5230902;28;20033;-70
2022/07/19 00:23:54;;;;;;;9.55;4.43;;;;;;;19.69;79.21;101624.75;5229898;28;20391;-70
2022/07/19 00:26:25;;;;;;;7.75;4.32;;;;;;;19.67;80.56;101629.47;5233469;28;20034;-71
2022/07/19 00:28:56;;;;;;;9.88;3.90;;;;;;;19.63;79.60;101625.38;5224734;28;20033;-70
2022/07/19 00:31:28;;;;;;;8.50;4.00;;;;;;;19.59;79.11;101624.84;5229558;28;20620;-70
2022/07/19 00:33:59;;;;;;;10.38;4.20;;;;;;;19.52;79.53;101622.94;5226591;28;20032;-70
2022/07/19 00:36:31;;;;;;;7.40;4.28;;;;;;;19.52;80.01;101622.94;5233846;28;20044;-70
2022/07/19 00:39:03;;;;;;;8.60;4.10;;;;;;;19.49;80.24;101625.97;5243382;28;20044;-70
2022/07/19 00:41:40;;;;;;;7.88;4.30;;;;;;;19.44;80.61;101618.28;5234594;28;20039;-70
2022/07/19 00:44:12;;;;;;;6.55;4.07;;;;;;;19.40;79.60;101620.47;5237958;28;20064;-70
2022/07/19 00:46:43;;;;;;;8.70;4.60;;;;;;;19.39;81.85;101610.66;5236186;28;20144;-71
2022/07/19 00:49:14;;;;;;;6.90;3.95;;;;;;;19.38;81.51;101608.09;5234924;28;20641;-70
2022/07/19 00:51:48;;;;;;;8.35;4.22;;;;;;;19.31;80.99;101615.13;5239208;28;20082;-70
2022/07/19 00:54:20;;;;;;;9.07;4.53;;;;;;;19.33;80.91;101607.72;5238757;28;20029;-70
2022/07/19 00:56:53;;;;;;;7.03;4.68;;;;;;;19.24;80.59;101614.09;5238328;28;20466;-70
2022/07/19 00:59:26;;;;;;;9.50;4.40;;;;;;;19.25;80.55;101611.19;5235942;28;20026;-70
2022/07/19 01:01:59;;;;;;;9.07;4.22;;;;;;;19.20;81.09;101616.25;5235578;28;20465;-70
2022/07/19 01:04:31;;;;;;;6.85;3.97;;;;;;;19.15;79.49;101611.28;5229853;28;20487;-70
2022/07/19 01:07:03;;;;;;;11.32;4.88;;;;;;;19.08;81.09;101615.63;5221278;28;20037;-70
2022/07/19 01:09:38;;;;;;;10.20;4.38;;;;;;;19.04;80.87;101613.38;5238294;28;20374;-70
2022/07/19 01:12:10;;;;;;;10.55;4.63;;;;;;;19.09;83.39;101605.66;5236137;28;20125;-70
2022/07/19 01:14:41;;;;;;;8.73;4.78;;;;;;;19.06;82.06;101609.53;5236354;28;20139;-70
2022/07/19 01:17:12;;;;;;;8.27;4.45;;;;;;;19.00;81.28;101613.69;5233489;28;20029;-70
2022/07/19 01:19:43;;;;;;;10.70;5.00;;;;;;;19.00;83.39;101615.53;5231644;28;20033;-70
2022/07/19 01:22:15;;;;;;;8.20;4.63;;;;;;;18.94;82.80;101608.88;5229100;28;20030;-70
2022/07/19 01:24:46;;;;;;;9.73;4.63;;;;;;;18.89;81.47;101613.94;5232658;28;20021;-70
2022/07/19 01:27:17;;;;;;;6.60;4.85;;;;;;;18.87;82.22;101604.25;5236445;28;20021;-70
2022/07/19 01:29:49;;;;;;;8.60;4.80;;;;;;;18.85;81.71;101603.53;5225567;28;20374;-70
2022/07/19 01:32:20;;;;;;;10.32;4.28;;;;;;;18.87;81.37;101601.53;5237653;28;20033;-70
2022/07/19 01:34:51;;;;;;;6.88;4.28;;;;;;;18.82;80.69;101615.53;5236973;28;20033;-70
2022/07/19 01:37:22;;;;;;;7.55;4.50;;;;;;;18.81;81.35;101613.81;5239325;28;20045;-70
2022/07/19 01:39:56;;;;;;;6.65;4.35;;;;;;;18.74;80.72;101608.16;5236878;28;20025;-70
2022/07/19 01:42:27;;;;;;;7.35;4.82;;;;;;;18.77;81.16;101612.38;5234299;28;20476;-70
2022/07/19 01:44:59;;;;;;;7.50;4.75;;;;;;;18.71;82.23;101615.72;5240568;28;20145;-70
2022/07/19 01:47:30;;;;;;;11.07;5.05;;;;;;;18.67;81.62;101609.75;5240240;28;20038;-70
2022/07/19 01:50:04;;;;;;;8.65;5.00;;;;;;;18.68;82.41;101608.75;5240836;28;20033;-70
2022/07/19 01:52:35;;;;;;;7.97;5.00;;;;;;;18.63;82.22;101611.06;5237602;28;20040;-70
2022/07/19 01:55:07;;;;;;;7.28;4.35;;;;;;;18.54;82.16;101607.44;5235193;28;20021;-70
2022/07/19 01:57:38;;;;;;;8.98;5.07;;;;;;;18.51;82.92;101613.13;5236629;28;20496;-70
2022/07/19 02:00:11;;;;;;;8.20;4.85;;;;;;;18.54;83.51;101612.84;5238474;28;20111;-70
2022/07/19 02:02:42;;;;;;;9.23;4.93;;;;;;;18.47;81.62;101611.72;5241323;28;20044;-70
2022/07/19 02:05:13;;;;;;;8.07;5.68;;;;;;;18.44;80.94;101609.31;5242992;28;20641;-70
2022/07/19 02:07:45;;;;;;;9.02;5.35;;;;;;;18.44;82.78;101606.63;5245048;28;20426;-70
2022/07/19 02:10:17;;;;;;;8.15;5.30;;;;;;;18.41;83.64;101604.22;5246185;28;20391;-70
2022/07/19 02:12:48;;;;;;;8.63;5.07;;;;;;;18.41;83.46;101609.63;5258549;28;20032;-70
2022/07/19 02:15:20;;;;;;;7.20;5.32;;;;;;;18.37;83.63;101600.09;5236621;28;20746;-70
2022/07/19 02:17:51;;;;;;;10.00;5.38;;;;;;;18.34;83.43;101605.81;5232941;28;20135;-70
2022/07/19 02:20:23;;;;;;;11.27;5.25;;;;;;;18.26;83.81;101594.94;5240449;28;20025;-70
2022/07/19 02:22:54;;;;;;;7.88;5.15;;;;;;;18.26;84.00;101605.72;5241125;28;20111;-70
2022/07/19 02:25:25;;;;;;;6.85;5.05;;;;;;;18.22;82.87;101594.38;5243769;28;20108;-70
2022/07/19 02:27:57;;;;;;;8.68;4.70;;;;;;;18.20;83.79;101594.50;5234919;28;20075;-70
2022/07/19 02:30:28;;;;;;;11.18;5.63;;;;;;;18.21;83.47;101596.19;5229327;28;20036;-70
2022/07/19 02:32:59;;;;;;;8.30;5.50;;;;;;;18.19;84.53;101583.84;5237268;28;20229;-70
2022/07/19 02:35:31;;;;;;;8.98;5.80;;;;;;;18.11;83.68;101600.78;5239204;28;20025;-70
2022/07/19 02:38:02;;;;;;;8.27;5.55;;;;;;;18.14;85.54;101588.84;5233954;28;20033;-70
2022/07/19 02:40:33;;;;;;;8.73;5.72;;;;;;;18.11;84.62;101584.59;5233507;28;20029;-70
2022/07/19 02:43:05;;;;;;;9.73;5.85;;;;;;;18.09;86.04;101591.16;5244462;28;20903;-70
2022/07/19 02:45:36;;;;;;;13.38;5.65;;;;;;;18.12;86.86;101594.41;5235684;28;20314;-70
2022/07/19 02:48:11;;;;;;;9.77;5.85;;;;;;;18.07;85.96;101575.09;5235071;28;20028;-70
2022/07/19 02:50:42;;;;;;;12.63;6.22;;;;;;;18.00;85.23;101579.38;5234526;28;20391;-70
2022/07/19 02:53:14;;;;;;;9.68;6.30;;;;;;;18.00;86.18;101576.66;5229875;28;20029;-70
2022/07/19 02:55:45;;;;;;;8.65;6.20;;;;;;;17.95;84.97;101578.97;5241090;28;20025;-70
2022/07/19 02:58:16;;;;;;;10.98;7.28;;;;;;;17.91;85.37;101575.72;5240768;28;20032;-70
2022/07/19 03:00:47;;;;;;;11.05;6.93;;;;;;;17.88;84.74;101577.88;5235960;28;20514;-70
2022/07/19 03:06:09;;;;;;;10.02;6.90;;;;;;;17.85;85.20;101578.16;5241403;28;20032;-70
2022/07/19 03:08:41;;;;;;;12.85;6.63;;;;;;;17.85;86.30;101572.75;5240651;28;20733;-70
2022/07/19 03:11:12;;;;;;;9.65;6.85;;;;;;;17.78;85.77;101572.47;5236632;28;20459;-70
2022/07/19 03:13:43;;;;;;;10.63;7.03;;;;;;;17.77;86.28;101571.59;5236759;28;20403;-70
2022/07/19 03:16:15;;;;;;;11.82;6.72;;;;;;;17.76;86.95;101567.22;5236813;28;20112;-70
2022/07/19 03:18:46;;;;;;;13.20;7.25;;;;;;;17.72;87.47;101557.72;5230382;28;20139;-70
2022/07/19 03:21:18;;;;;;;9.15;6.90;;;;;;;17.72;87.32;101562.25;5232451;28;20057;-70
2022/07/19 03:23:49;;;;;;;10.27;7.53;;;;;;;17.69;87.53;101558.00;5229974;28;21185;-70
2022/07/19 03:26:20;;;;;;;13.88;6.95;;;;;;;17.66;87.90;101555.59;5234891;28;20039;-70
2022/07/19 03:28:52;;;;;;;9.55;7.00;;;;;;;17.64;86.54;101555.75;5233495;28;20061;-70
2022/07/19 03:31:24;;;;;;;10.43;7.18;;;;;;;17.60;87.88;101554.34;5236783;28;20534;-70
2022/07/19 03:33:55;;;;;;;10.05;7.38;;;;;;;17.58;86.89;101555.47;5234422;28;20166;-70
2022/07/19 03:36:26;;;;;;;9.05;7.63;;;;;;;17.58;87.77;101555.47;5234789;28;20029;-70
2022/07/19 03:38:57;;;;;;;10.65;8.13;;;;;;;17.54;88.13;101557.59;5230705;28;20056;-70
2022/07/19 03:41:29;;;;;;;10.35;8.05;;;;;;;17.53;86.74;101563.16;5232377;28;22131;-70
2022/07/19 03:44:00;;;;;;;10.30;7.78;;;;;;;17.50;86.32;101560.75;5237121;28;20088;-70
2022/07/19 03:46:32;;;;;;;10.90;7.93;;;;;;;17.49;87.95;101551.81;5232158;28;20033;-70
2022/07/19 03:49:03;;;;;;;10.10;7.70;;;;;;;17.43;88.28;101555.94;5228310;28;20969;-70
2022/07/19 03:51:34;;;;;;;10.95;7.63;;;;;;;17.44;88.69;101551.38;5230349;28;21011;-70
2022/07/19 03:54:05;;;;;;;9.38;7.90;;;;;;;17.42;88.63;101556.91;5225737;28;20057;-70
2022/07/19 03:56:37;;;;;;;9.98;8.45;;;;;;;17.43;88.72;101560.47;5243867;28;20041;-70
2022/07/19 03:59:08;;;;;;;11.45;8.35;;;;;;;17.45;89.75;101561.19;5234005;28;20033;-70
2022/07/19 04:01:40;;;;;;;12.40;8.32;;;;;;;17.39;88.78;101564.44;5217839;28;20058;-70
2022/07/19 04:04:11;;;;;;;10.73;8.57;;;;;;;17.37;89.20;101567.31;5225686;28;20498;-70
2022/07/19 04:06:43;;;;;;;10.63;8.30;;;;;;;17.36;88.68;101560.19;5224568;28;20091;-70
2022/07/19 04:09:14;;;;;;;10.73;8.48;;;;;;;17.39;88.97;101553.66;5216079;28;20031;-70
2022/07/19 04:11:46;;;;;;;14.18;9.05;;;;;;;17.39;89.52;101559.03;5225186;28;20026;-70
2022/07/19 04:14:17;;;;;;;11.68;9.43;;;;;;;17.38;89.85;101558.22;5234798;28;20100;-70
2022/07/19 04:16:48;;;;;;;12.90;9.02;;;;;;;17.37;89.38;101558.34;5227006;28;20209;-70
2022/07/19 04:19:19;;;;;;;21.05;10.60;;;;;;;17.48;87.80;101554.66;5223545;28;20666;-70
2022/07/19 04:21:51;;;;;;;19.45;10.20;;;;;;;17.42;87.71;101566.88;5231628;28;20033;-70
2022/07/19 04:24:22;;;;;;;13.65;9.95;;;;;;;17.46;88.10;101553.94;5232891;28;20032;-70
2022/07/19 04:26:53;;;;;;;13.75;10.32;;;;;;;17.48;89.64;101565.44;5240648;28;20086;-70
2022/07/19 04:29:25;;;;;;;15.50;10.82;;;;;;;17.47;89.46;101561.91;5221031;28;20094;-71
2022/07/19 04:31:56;;;;;;;14.35;10.20;;;;;;;17.48;89.48;101560.88;5230650;28;20031;-70
2022/07/19 04:34:27;;;;;;;15.90;9.93;;;;;;;17.51;89.95;101563.31;5238236;28;20518;-70
2022/07/19 04:36:58;;;;;;;13.70;9.85;;;;;;;17.54;90.51;101556.75;5229914;28;20051;-70
2022/07/19 04:39:30;;;;;;;15.05;10.32;;;;;;;17.58;90.00;101559.00;5230795;28;20120;-70
2022/07/19 04:42:01;;;;;;;13.57;9.38;;;;;;;17.58;88.86;101571.66;5239186;28;20024;-70
2022/07/19 04:44:32;;;;;;;15.75;10.65;;;;;;;17.64;89.87;101568.38;5235768;28;20033;-70
2022/07/19 04:47:04;;;;;;;13.00;10.00;;;;;;;17.70;90.87;101564.22;5233407;28;20044;-69
2022/07/19 04:49:35;;;;;;;15.45;9.80;;;;;;;17.70;89.87;101565.09;5232562;28;20032;-69
2022/07/19 04:52:06;;;;;;;14.20;9.82;;;;;;;17.74;90.96;101565.66;5246353;28;20033;-69
2022/07/19 04:54:38;;;;;;;13.20;10.02;;;;;;;17.80;90.74;101570.47;5232806;28;20027;-69
2022/07/19 04:57:09;;;;;;;12.20;10.18;;;;;;;17.83;90.35;101564.75;5234848;28;20083;-69
2022/07/19 04:59:41;;;;;;;15.52;10.98;;;;;;;17.97;91.25;101563.50;5236278;28;20063;-69
2022/07/19 05:02:12;;;;;;;16.73;11.35;;;;;;;17.90;90.40;101565.91;5238649;28;20569;-69
2022/07/19 05:04:44;;;;;;;16.23;11.48;;;;;;;17.91;90.36;101556.84;5236280;28;20493;-69
2022/07/19 05:07:15;;;;;;;19.85;11.93;;;;;;;17.97;91.85;101564.34;5241496;28;20162;-69
2022/07/19 05:09:46;;;;;;;18.55;11.68;;;;;;;17.99;90.31;101559.63;5232014;28;20033;-70
2022/07/19 05:12:17;;;;;;;20.55;11.73;;;;;;;18.07;91.92;101561.59;5220508;28;20468;-70
2022/07/19 05:14:49;;;;;;;18.55;11.75;;;;;;;18.11;91.11;101560.28;5221303;28;20492;-70
2022/07/19 05:17:21;;;;;;;17.95;12.23;;;;;;;18.15;93.40;101558.97;5224890;28;20136;-70
2022/07/19 05:19:52;;;;;;;20.75;12.00;;;;;;;18.19;91.85;101554.13;5238994;28;20022;-70
2022/07/19 05:22:24;;;;;;;18.30;11.77;;;;;;;18.21;91.89;101562.94;5225346;28;20040;-70
2022/07/19 05:24:56;;;;;;;19.30;11.88;;;;;;;18.27;91.28;101559.63;5231215;28;21196;-70
2022/07/19 05:27:27;;;;;;;18.25;12.07;;;;;;;18.33;91.20;101555.47;5228573;28;20156;-70
2022/07/19 05:29:58;;;;;;;17.42;12.52;;;;;;;18.39;91.77;101560.31;5235931;28;20120;-70
2022/07/19 05:32:30;;;;;;;19.98;12.07;;;;;;;18.43;93.46;101556.28;5232073;28;20078;-70
2022/07/19 05:35:01;;;;;;;17.10;12.48;;;;;;;18.52;94.22;101568.88;5242417;28;20032;-70
2022/07/19 05:37:33;;;;;;;18.88;12.45;;;;;;;18.54;92.51;101568.72;5229160;28;20619;-70
2022/07/19 05:40:05;;;;;;;21.75;12.07;;;;;;;18.60;93.37;101585.19;5234099;28;20676;-70
2022/07/19 05:42:36;;;;;;;18.38;12.57;;;;;;;18.64;91.10;101583.03;5227754;28;21613;-70
2022/07/19 05:45:08;;;;;;;17.58;11.77;;;;;;;18.70;91.40;101584.28;5229257;28;20059;-69
2022/07/19 05:47:39;;;;;;;16.88;11.52;;;;;;;18.83;93.46;101581.22;5232511;28;20051;-70
2022/07/19 05:50:10;;;;;;;13.50;11.27;;;;;;;18.82;92.23;101571.44;5231747;28;20029;-70
2022/07/19 05:52:42;;;;;;;19.00;12.65;;;;;;;18.97;89.91;101573.44;5228355;28;20061;-70
2022/07/19 05:55:13;;;;;;;19.63;12.50;;;;;;;19.05;86.46;101580.78;5235772;28;20025;-70
2022/07/19 05:57:44;;;;;;;23.77;14.00;;;;;;;19.24;83.76;101578.91;5238606;28;20049;-70
2022/07/19 06:00:15;;;;;;;15.95;12.50;;;;;;;19.22;85.08;101581.78;5231987;28;20032;-70
2022/07/19 06:02:47;;;;;;;18.38;13.38;;;;;;;19.43;81.32;101578.72;5229472;28;20045;-70
2022/07/19 06:05:18;;;;;;;15.73;12.52;;;;;;;19.48;81.20;101568.25;5231096;28;20029;-70
2022/07/19 06:07:49;;;;;;;15.95;11.32;;;;;;;19.45;85.64;101571.28;5229199;28;20166;-70
2022/07/19 06:10:20;;;;;;;18.60;11.30;;;;;;;19.48;84.05;101567.41;5232068;28;20108;-70
2022/07/19 06:12:52;;;;;;;15.75;10.52;;;;;;;19.50;85.95;101574.38;5229865;28;20029;-70
2022/07/19 06:15:23;;;;;;;14.68;9.85;;;;;;;19.62;85.59;101580.38;5230068;28;20032;-70
2022/07/19 06:17:54;;;;;;;15.45;10.93;;;;;;;19.87;79.65;101570.59;5225288;28;20038;-70
2022/07/19 06:20:25;;;;;;;18.52;11.23;;;;;;;19.90;77.83;101572.13;5229811;28;20045;-70
2022/07/19 06:22:57;;;;;;;16.15;9.93;;;;;;;20.04;78.08;101576.06;5230191;28;20036;-70
2022/07/19 06:25:28;;;;;;;15.00;9.63;;;;;;;20.04;79.14;101574.22;5229851;28;20029;-70
2022/07/19 06:27:59;;;;;;;14.73;8.57;;;;;;;20.32;75.71;101574.84;5230346;28;20161;-70
2022/07/19 06:30:31;;;;;;;15.48;8.32;;;;;;;20.35;74.15;101571.81;5228185;28;20032;-70
2022/07/19 06:33:02;;;;;;;15.32;7.57;;;;;;;20.49;71.99;101575.75;5229279;28;20043;-70
2022/07/19 06:35:33;;;;;;;14.02;7.22;;;;;;;20.58;73.07;101576.63;5227553;28;20052;-70
2022/07/19 06:38:05;;;;;;;12.65;6.68;;;;;;;20.69;73.50;101573.66;5229990;28;20036;-70
2022/07/19 06:40:36;;;;;;;11.43;5.80;;;;;;;20.69;74.26;101575.50;5228610;28;20727;-70
2022/07/19 06:43:08;;;;;;;12.40;6.93;;;;;;;20.80;74.48;101577.06;5228588;28;20399;-70
2022/07/19 06:45:39;;;;;;;10.23;6.53;;;;;;;20.95;72.53;101578.09;5228660;28;20610;-70
2022/07/19 06:48:11;;;;;;;13.88;6.63;;;;;;;21.05;71.93;101567.06;5228751;28;20146;-70
2022/07/19 06:50:42;;;;;;;13.57;6.18;;;;;;;21.34;70.15;101572.84;5231869;28;20025;-71
2022/07/19 06:53:13;;;;;;;12.85;6.43;;;;;;;21.54;68.92;101573.38;5233969;28;20091;-71
2022/07/19 06:55:45;;;;;;;10.93;5.85;;;;;;;21.53;69.31;101568.97;5229535;28;20036;-70
2022/07/19 06:58:17;;;;;;;13.32;6.03;;;;;;;21.90;65.72;101572.97;5231845;28;20020;-71
2022/07/19 07:00:51;;;;;;;9.20;5.22;;;;;;;21.84;66.99;101573.66;5227177;28;20040;-70
2022/07/19 07:03:23;;;;;;;12.63;5.63;;;;;;;22.18;63.99;101577.09;5230056;28;20064;-70
2022/07/19 07:05:54;;;;;;;10.30;5.40;;;;;;;22.47;63.02;101581.91;5231285;28;20523;-71
2022/07/19 07:08:25;;;;;;;11.70;5.72;;;;;;;22.61;62.98;101577.59;5227395;28;21677;-70
2022/07/19 07:10:57;;;;;;;10.82;5.03;;;;;;;22.72;63.61;101577.19;5229032;28;20033;-71
2022/07/19 07:13:28;;;;;;;11.55;5.22;;;;;;;22.84;64.04;101575.75;5229819;28;20060;-71
2022/07/19 07:15:59;;;;;;;10.40;4.82;;;;;;;22.96;64.04;101572.63;5227218;28;20494;-70
2022/07/19 07:18:31;;;;;;;10.63;4.75;;;;;;;23.21;60.65;101568.69;5226913;28;20037;-71
2022/07/19 07:21:02;;;;;;;11.05;4.50;;;;;;;23.33;61.83;101568.28;5240315;28;20041;-71
2022/07/19 07:23:34;;;;;;;8.20;4.53;;;;;;;23.60;59.53;101569.53;5236465;28;20392;-70
2022/07/19 07:26:05;;;;;;;9.93;4.43;;;;;;;23.68;59.91;101558.53;5243307;28;20483;-70
2022/07/19 07:28:37;;;;;;;9.63;4.45;;;;;;;23.80;61.10;101556.25;5241057;28;20054;-70
2022/07/19 07:31:08;;;;;;;9.15;3.85;;;;;;;24.05;60.82;101559.53;5243339;28;20021;-70
2022/07/19 07:33:39;;;;;;;9.88;4.95;;;;;;;24.21;59.64;101561.22;5247228;28;20029;-70
2022/07/19 07:36:11;;;;;;;10.38;4.53;;;;;;;24.55;55.44;101560.59;5240199;28;20032;-70
2022/07/19 07:38:42;;;;;;;10.10;4.00;;;;;;;24.67;55.69;101557.38;5232370;28;20056;-70
2022/07/19 07:41:13;;;;;;;7.60;3.85;;;;;;;24.85;53.23;101558.63;5239337;28;20483;-70
2022/07/19 07:43:45;;;;;;;10.00;3.85;;;;;;;25.05;53.50;101557.97;5243038;28;20104;-70
2022/07/19 07:46:16;;;;;;;7.68;4.20;;;;;;;25.22;51.95;101566.75;5250569;28;20104;-70
2022/07/19 07:48:47;;;;;;;11.35;3.67;;;;;;;25.47;51.35;101555.38;5241120;28;20622;-70
2022/07/19 07:51:19;;;;;;;10.45;3.65;;;;;;;25.58;49.82;101552.97;5238553;28;20029;-70
2022/07/19 07:53:50;;;;;;;8.45;3.38;;;;;;;25.87;46.63;101547.44;5232766;28;20025;-71
2022/07/19 07:56:22;;;;;;;10.38;3.80;;;;;;;25.99;47.24;101535.78;5239787;28;20100;-70
2022/07/19 07:58:53;;;;;;;7.35;3.63;;;;;;;26.25;46.60;101545.13;5245179;28;20040;-70
2022/07/19 08:01:24;;;;;;;8.20;3.20;;;;;;;26.34;45.94;101549.38;5236383;28;21304;-70
2022/07/19 08:03:56;;;;;;;10.30;3.78;;;;;;;26.54;44.96;101544.00;5240536;28;20091;-70
2022/07/19 08:06:28;;;;;;;7.85;3.03;;;;;;;26.67;45.15;101548.66;5238556;28;20025;-70
2022/07/19 08:08:59;;;;;;;9.90;3.72;;;;;;;26.78;44.87;101541.75;5233031;28;20068;-70
2022/07/19 08:11:30;;;;;;;5.32;3.30;;;;;;;26.91;45.89;101543.69;5243103;28;20060;-70
2022/07/19 08:14:02;;;;;;;10.68;3.83;;;;;;;27.04;44.93;101540.94;5230817;28;20746;-70
2022/07/19 08:16:33;;;;;;;11.98;3.25;;;;;;;27.26;44.94;101541.59;5258706;28;20109;-71
2022/07/19 08:19:04;;;;;;;8.38;3.42;;;;;;;27.37;43.51;101531.91;5251743;28;20040;-71
2022/07/19 08:21:36;;;;;;;8.55;3.47;;;;;;;27.60;42.79;101534.19;5227626;28;20373;-71
2022/07/19 08:24:07;;;;;;;9.95;3.15;;;;;;;27.70;41.63;101537.31;5225724;28;20437;-70
2022/07/19 08:26:38;;;;;;;8.05;3.17;;;;;;;27.83;42.65;101532.88;5227788;28;20029;-70
2022/07/19 08:29:10;;;;;;;7.80;3.33;;;;;;;27.91;41.83;101532.66;5229676;28;20029;-71
2022/07/19 08:31:41;;;;;;;8.50;3.35;;;;;;;28.11;41.71;101530.72;5225804;28;20463;-71
2022/07/19 08:34:12;;;;;;;10.68;3.60;;;;;;;28.38;40.92;101530.56;5227745;28;20053;-71
2022/07/19 08:36:43;;;;;;;9.40;3.17;;;;;;;28.58;40.90;101526.91;5227745;28;20407;-71
2022/07/19 08:39:15;;;;;;;8.52;3.20;;;;;;;28.54;40.50;101529.25;5228484;28;20020;-71
2022/07/19 08:41:46;;;;;;;7.90;3.20;;;;;;;28.77;39.82;101525.09;5231868;28;20037;-71
2022/07/19 08:44:18;;;;;;;8.10;3.03;;;;;;;28.93;39.31;101528.13;5239409;28;20021;-71
2022/07/19 08:46:49;;;;;;;12.57;3.28;;;;;;;29.05;39.15;101522.78;5223107;28;20036;-71
2022/07/19 08:49:21;;;;;;;7.57;3.25;;;;;;;29.23;38.59;101526.66;5225424;28;20036;-71
2022/07/19 08:51:53;;;;;;;8.52;3.45;;;;;;;29.36;38.19;101529.28;5234464;28;20029;-71
2022/07/19 08:54:25;;;;;;;7.15;3.30;;;;;;;29.32;36.75;101515.16;5250609;28;20869;-71
2022/07/19 08:59:47;;;;;;;6.32;2.88;;;;;;;29.84;37.88;101519.47;5229256;28;20041;-71
2022/07/19 09:02:18;;;;;;;9.98;3.17;;;;;;;29.61;37.22;101517.38;5232728;28;20049;-71
2022/07/19 09:05:09;;;;;;;8.68;3.60;;;;;;;29.97;39.20;101522.06;5231973;28;20427;-70
2022/07/19 09:07:41;;;;;;;10.45;3.30;;;;;;;29.93;37.63;101514.53;5239228;28;20368;-70
2022/07/19 09:10:19;;;;;;;5.97;3.20;;;;;;;30.07;36.30;101513.31;5238462;28;20775;-71
2022/07/19 09:13:11;;;;;;;8.95;3.40;;;;;;;30.08;37.48;101507.53;5242926;28;20090;-71
2022/07/19 09:15:46;;;;;;;7.40;3.75;;;;;;;30.00;36.45;101504.28;5250781;28;20124;-71
2022/07/19 09:18:21;;;;;;;9.57;3.28;;;;;;;30.39;37.50;101502.09;5240568;28;20037;-71
2022/07/19 09:20:58;;;;;;;10.85;3.95;;;;;;;30.49;38.33;101507.88;5255989;28;20079;-71
2022/07/19 09:23:31;;;;;;;6.32;3.40;;;;;;;30.63;36.24;101505.78;5245867;28;20045;-71
2022/07/19 09:26:04;;;;;;;8.93;3.40;;;;;;;30.73;36.06;101505.19;5240620;28;20021;-71
2022/07/19 09:28:36;;;;;;;6.03;3.80;;;;;;;30.73;36.86;101499.69;5252209;28;20473;-70
2022/07/19 09:31:09;;;;;;;9.35;3.80;;;;;;;30.63;35.66;101505.78;5255183;28;20025;-71
2022/07/19 09:33:46;;;;;;;9.68;3.35;;;;;;;30.96;36.33;101499.75;5240453;28;20024;-71
2022/07/19 09:36:17;;;;;;;7.20;3.30;;;;;;;31.05;36.32;101503.00;5247513;28;20025;-71
2022/07/19 09:38:51;;;;;;;6.20;3.20;;;;;;;31.25;36.36;101506.22;5249513;28;20628;-70
2022/07/19 09:41:22;;;;;;;5.93;3.30;;;;;;;31.31;33.13;101504.44;5243084;28;20033;-71
2022/07/19 09:43:55;;;;;;;6.75;2.90;;;;;;;31.52;32.85;101494.75;5248072;28;20079;-71
2022/07/19 09:46:38;;;;;;;6.25;3.20;;;;;;;31.43;35.01;101501.66;5240494;28;20040;-71
2022/07/19 09:49:12;;;;;;;8.65;3.40;;;;;;;31.69;33.82;101489.31;5238633;28;20029;-71
2022/07/19 09:51:46;;;;;;;7.43;3.17;;;;;;;31.70;33.43;101491.00;5239509;28;20553;-71
2022/07/19 09:54:24;;;;;;;7.53;3.40;;;;;;;31.68;34.13;101489.56;5246744;28;20095;-72
2022/07/19 09:56:59;;;;;;;6.38;3.45;;;;;;;31.79;33.66;101485.94;5243470;28;20029;-71
2022/07/19 09:59:32;;;;;;;7.93;3.80;;;;;;;32.15;33.56;101486.69;5251640;28;20020;-71
2022/07/19 10:02:03;;;;;;;7.00;3.35;;;;;;;31.94;35.24;101488.19;5252791;28;20057;-71
2022/07/19 10:04:35;;;;;;;7.85;3.17;;;;;;;32.05;32.20;101476.31;5251849;28;20033;-71
2022/07/19 10:07:07;;;;;;;7.03;3.50;;;;;;;32.11;31.42;101480.84;5249190;28;20028;-71
2022/07/19 10:09:39;;;;;;;8.77;3.78;;;;;;;32.26;30.66;101483.06;5258185;28;20058;-71
2022/07/19 10:12:12;;;;;;;7.28;2.75;;;;;;;32.43;30.95;101481.16;5248547;28;20060;-71
2022/07/19 10:14:43;;;;;;;6.72;3.10;;;;;;;32.44;31.42;101479.22;5244286;28;20043;-72
2022/07/19 10:17:40;;;;;;;7.53;3.50;;;;;;;32.65;30.45;101482.41;5247045;28;20030;-71
2022/07/19 10:20:16;;;;;;;5.55;3.08;;;;;;;32.56;30.11;101480.06;5250579;28;20498;-72
2022/07/19 10:22:49;;;;;;;6.78;3.22;;;;;;;32.65;30.72;101474.13;5239374;28;20024;-74
2022/07/19 10:25:21;;;;;;;;;;;;;;;32.53;32.85;101477.75;5244994;28;20359;-72
2022/07/19 10:27:54;;;;;;;8.37;3.03;;;;;;;32.76;29.63;101471.25;5236991;28;19916;-72
2022/07/19 10:30:26;;;;;;;5.75;3.40;;;;;;;32.99;28.93;101472.19;5249956;28;20060;-72
2022/07/19 10:32:57;;;;;;;6.70;3.10;;;;;;;32.86;29.90;101467.81;5247722;28;20210;-71
2022/07/19 10:35:30;;;;;;;5.20;2.88;;;;;;;32.91;29.42;101469.81;5243988;28;20030;-72
2022/07/19 10:38:01;;;;;;;6.90;2.92;;;;;;;32.89;31.06;101461.81;5241809;28;20035;-73
2022/07/19 10:40:48;;;;;;;10.70;3.00;;;;;;;33.18;29.89;101458.97;5244295;28;20368;-72
2022/07/19 10:43:20;;;;;;;5.15;2.80;;;;;;;33.33;29.13;101444.50;5240104;28;20302;-72
2022/07/19 10:46:04;;;;;;;5.87;3.30;;;;;;;33.31;29.36;101449.44;5240783;28;20091;-72
2022/07/19 10:48:38;;;;;;;;;;;;;;;33.18;31.60;101457.03;5246459;28;22184;-72
2022/07/19 10:51:27;;;;;;;5.10;2.72;;;;;;;33.53;28.46;101444.78;5238480;28;19966;-71
2022/07/19 10:54:10;;;;;;;7.47;2.88;;;;;;;33.45;29.83;101444.41;5243553;28;20044;-72
2022/07/19 10:56:56;;;;;;;7.20;2.92;;;;;;;33.81;27.57;101442.94;5245157;28;20033;-70
2022/07/19 10:59:39;;;;;;;6.68;3.00;;;;;;;33.85;28.69;101432.16;5246958;28;20025;-72
2022/07/19 11:02:22;;;;;;;6.25;2.80;;;;;;;33.76;28.71;101442.88;5243375;28;20056;-73
2022/07/19 11:04:56;;;;;;;7.28;2.95;;;;;;;33.86;27.10;101431.91;5244403;28;20029;-72
2022/07/19 11:07:27;;;;;;;5.95;2.53;;;;;;;34.07;26.91;101435.75;5252424;28;20630;-71
2022/07/19 11:09:59;;;;;;;6.55;2.42;;;;;;;33.78;27.35;101435.16;5239356;28;20024;-72
2022/07/19 11:12:40;;;;;;;6.22;2.70;;;;;;;34.07;27.65;101424.66;5251371;28;20028;-72
2022/07/19 11:15:11;;;;;;;7.57;3.05;;;;;;;34.47;26.21;101423.41;5246552;28;20043;-72
2022/07/19 11:17:55;;;;;;;8.52;2.70;;;;;;;34.31;27.15;101421.63;5249326;28;20387;-72
2022/07/19 11:20:28;;;;;;;7.03;2.35;;;;;;;34.37;26.51;101415.03;5249164;28;20043;-72
2022/07/19 11:23:03;;;;;;;5.38;2.65;;;;;;;34.55;26.09;101411.84;5248203;28;20029;-72
2022/07/19 11:25:38;;;;;;;7.90;2.60;;;;;;;34.46;26.29;101412.59;5237683;28;20047;-73
2022/07/19 11:28:24;;;;;;;5.80;2.47;;;;;;;34.66;27.44;101400.84;5238514;28;20072;-72
2022/07/19 11:30:55;;;;;;;4.78;2.42;;;;;;;34.82;26.72;101402.63;5248184;28;20132;-72
2022/07/19 11:33:26;;;;;;;5.38;2.63;;;;;;;34.61;27.37;101398.03;5250046;28;20032;-72
2022/07/19 11:35:59;;;;;;;6.93;2.47;;;;;;;34.87;26.03;101393.53;5236332;28;20032;-72
2022/07/19 11:38:52;;;;;;;6.32;2.50;;;;;;;34.80;28.12;101404.84;5238157;28;20033;-72
2022/07/19 11:41:29;;;;;;;11.20;2.80;;;;;;;34.99;26.37;101391.38;5241572;28;20059;-72
2022/07/19 11:44:10;;;;;;;5.70;2.75;;;;;;;34.75;26.65;101390.97;5241657;28;20103;-73
2022/07/19 11:46:41;;;;;;;5.80;2.75;;;;;;;35.07;26.10;101378.94;5238666;28;20252;-73
2022/07/19 11:49:14;;;;;;;4.47;2.47;;;;;;;34.87;25.48;101377.72;5248173;28;20113;-72
2022/07/19 11:51:46;;;;;;;5.43;2.10;;;;;;;35.06;26.06;101374.53;5244572;28;20036;-73